Time;durP1;ratioP1;P1;durP2;ratioP2;P2;SDS_P1;SDS_P2;PMS_P1;PMS_P2;Temp;Humidity;BMP_temperature;BMP_pressure;BME280_temperature;BME280_humidity;BME280_pressure;Samples;Min_cycle;Max_cycle;Signal;HPM_P1;HPM_P2
2022/03/18 00:00:20;;;;;;;25.20;10.27;;;;;;;1.44;100.00;103731.63;5092715;28;20024;-66
2022/03/18 00:02:46;;;;;;;26.02;10.60;;;;;;;1.41;100.00;103718.31;5092726;28;20486;-66
2022/03/18 00:05:12;;;;;;;25.63;10.73;;;;;;;1.33;100.00;103723.78;5093113;28;20371;-66
2022/03/18 00:07:40;;;;;;;25.40;11.10;;;;;;;1.39;100.00;103729.53;5092948;28;20024;-65
2022/03/18 00:10:07;;;;;;;25.13;10.60;;;;;;;1.34;100.00;103736.03;5092847;28;20020;-66
2022/03/18 00:12:33;;;;;;;25.08;10.85;;;;;;;1.35;100.00;103748.28;5085039;28;20024;-66
2022/03/18 00:14:59;;;;;;;24.65;10.20;;;;;;;1.26;100.00;103749.19;5092876;28;20466;-66
2022/03/18 00:17:25;;;;;;;24.52;10.10;;;;;;;1.07;100.00;103746.63;5094975;28;20038;-66
2022/03/18 00:19:51;;;;;;;24.17;9.40;;;;;;;1.03;100.00;103745.41;5097002;28;20035;-66
2022/03/18 00:22:16;;;;;;;23.77;9.23;;;;;;;1.00;100.00;103748.66;5096856;28;20028;-66
2022/03/18 00:24:41;;;;;;;24.73;8.73;;;;;;;0.96;100.00;103749.19;5096648;28;20031;-66
2022/03/18 00:27:08;;;;;;;24.05;9.10;;;;;;;0.86;100.00;103749.13;5097190;28;20463;-65
2022/03/18 00:29:35;;;;;;;23.65;8.57;;;;;;;0.87;100.00;103740.53;5096662;28;20020;-66
2022/03/18 00:32:01;;;;;;;21.83;8.80;;;;;;;0.96;100.00;103741.38;5096956;28;20055;-66
2022/03/18 00:34:26;;;;;;;22.92;9.55;;;;;;;0.97;100.00;103735.34;5096895;28;20121;-66
2022/03/18 00:36:53;;;;;;;24.42;10.27;;;;;;;1.00;100.00;103746.06;5095272;28;20039;-66
2022/03/18 00:39:18;;;;;;;22.60;9.27;;;;;;;1.02;100.00;103744.53;5096269;28;20133;-66
2022/03/18 00:41:44;;;;;;;25.48;10.63;;;;;;;1.00;100.00;103748.66;5096390;28;20107;-66
2022/03/18 00:44:10;;;;;;;25.40;10.70;;;;;;;0.94;100.00;103744.59;5096498;28;20031;-66
2022/03/18 00:46:35;;;;;;;26.17;10.25;;;;;;;0.90;100.00;103755.53;5094864;28;20114;-66
2022/03/18 00:54:29;;;;;;;24.63;10.25;;;;;;;0.67;100.00;103770.91;5096469;28;20407;-66
2022/03/18 00:56:54;;;;;;;23.63;9.18;;;;;;;0.55;100.00;103774.06;5096210;28;20024;-66
2022/03/18 00:59:19;;;;;;;24.38;9.52;;;;;;;0.48;100.00;103765.69;5096323;28;20042;-66
2022/03/18 01:01:45;;;;;;;24.48;9.57;;;;;;;0.37;100.00;103763.78;5096025;28;20054;-66
2022/03/18 01:04:10;;;;;;;23.23;9.23;;;;;;;0.41;100.00;103773.72;5096179;28;20141;-66
2022/03/18 01:06:36;;;;;;;22.52;9.25;;;;;;;0.48;100.00;103777.78;5096064;28;20082;-66
2022/03/18 01:09:05;;;;;;;25.45;9.38;;;;;;;0.28;100.00;103779.47;5095962;28;20103;-66
2022/03/18 01:11:31;;;;;;;24.90;9.40;;;;;;;0.32;100.00;103788.44;5096137;28;20020;-66
2022/03/18 01:13:57;;;;;;;23.85;8.55;;;;;;;0.27;100.00;103789.72;5095989;28;20073;-66
2022/03/18 01:16:22;;;;;;;22.98;8.73;;;;;;;0.11;100.00;103784.78;5096022;28;20031;-66
2022/03/18 01:18:47;;;;;;;24.92;9.23;;;;;;;0.18;100.00;103781.97;5095965;28;20472;-66
2022/03/18 01:21:13;;;;;;;23.08;8.82;;;;;;;0.06;100.00;103783.41;5095851;28;20471;-66
2022/03/18 01:23:38;;;;;;;22.05;8.88;;;;;;;0.03;100.00;103781.47;5095637;28;20032;-66
2022/03/18 01:26:04;;;;;;;21.70;8.30;;;;;;;-0.04;100.00;103785.16;5096006;28;20017;-66
2022/03/18 01:28:30;;;;;;;23.15;8.70;;;;;;;-0.02;100.00;103786.19;5093998;28;20062;-66
2022/03/18 01:30:56;;;;;;;23.10;8.32;;;;;;;-0.05;100.00;103783.31;5095452;28;20020;-66
2022/03/18 01:33:21;;;;;;;23.80;8.85;;;;;;;-0.06;100.00;103778.91;5095941;28;20552;-66
2022/03/18 01:35:46;;;;;;;21.88;8.77;;;;;;;-0.01;100.00;103776.72;5095406;28;20443;-66
2022/03/18 01:38:12;;;;;;;22.90;8.55;;;;;;;0.04;100.00;103775.47;5094965;28;20024;-66
2022/03/18 01:40:37;;;;;;;23.27;8.70;;;;;;;-0.08;100.00;103775.22;5095829;28;20030;-66
2022/03/18 01:43:06;;;;;;;21.40;8.13;;;;;;;-0.18;100.00;103786.44;5087038;28;20032;-66
2022/03/18 01:45:32;;;;;;;23.63;8.73;;;;;;;-0.18;100.00;103777.72;5095518;28;20462;-66
2022/03/18 01:47:57;;;;;;;21.67;8.23;;;;;;;-0.19;100.00;103778.50;5093901;28;20047;-66
2022/03/18 01:50:23;;;;;;;24.63;8.80;;;;;;;-0.31;100.00;103779.94;5095449;28;20406;-66
2022/03/18 01:52:48;;;;;;;22.40;8.43;;;;;;;-0.36;100.00;103795.09;5095002;28;20043;-66
2022/03/18 01:55:15;;;;;;;22.58;8.48;;;;;;;-0.33;100.00;103797.09;5095213;28;20032;-66
2022/03/18 01:57:40;;;;;;;21.77;8.50;;;;;;;-0.30;100.00;103792.19;5095006;28;20032;-67
2022/03/18 02:00:06;;;;;;;22.00;8.77;;;;;;;-0.38;100.00;103783.63;5094933;28;20031;-66
2022/03/18 02:02:32;;;;;;;23.65;9.45;;;;;;;-0.39;100.00;103780.13;5095124;28;20016;-66
2022/03/18 02:04:58;;;;;;;23.63;10.07;;;;;;;-0.38;100.00;103781.03;5094838;28;20035;-66
2022/03/18 02:07:23;;;;;;;27.65;11.85;;;;;;;-0.39;100.00;103780.13;5095013;28;20024;-66
2022/03/18 02:09:49;;;;;;;24.20;10.57;;;;;;;-0.40;100.00;103788.66;5094788;28;20036;-66
2022/03/18 02:12:14;;;;;;;24.65;9.77;;;;;;;-0.55;100.00;103789.81;5094830;28;20028;-66
2022/03/18 02:14:43;;;;;;;22.83;9.30;;;;;;;-0.47;100.00;103794.06;5094564;28;20028;-66
2022/03/18 02:17:11;;;;;;;24.10;9.80;;;;;;;-0.49;100.00;103790.41;5094775;28;20111;-66
2022/03/18 02:19:38;;;;;;;23.13;9.35;;;;;;;-0.54;100.00;103808.16;5094886;28;20032;-66
2022/03/18 02:22:24;;;;;;;23.92;9.35;;;;;;;-0.60;100.00;103811.81;5086638;28;20376;-66
2022/03/18 02:24:52;;;;;;;23.58;9.27;;;;;;;-0.61;100.00;103805.72;5090797;28;20111;-66
2022/03/18 02:27:19;;;;;;;21.60;9.23;;;;;;;-0.54;100.00;103809.81;5094866;28;20074;-66
2022/03/18 02:29:44;;;;;;;23.00;9.30;;;;;;;-0.51;100.00;103809.22;5094286;28;20102;-67
2022/03/18 02:32:11;;;;;;;24.38;10.00;;;;;;;-0.50;100.00;103796.34;5094340;28;20099;-67
2022/03/18 02:34:38;;;;;;;24.38;10.10;;;;;;;-0.53;100.00;103794.38;5094535;28;20028;-66
2022/03/18 02:37:05;;;;;;;24.20;10.13;;;;;;;-0.61;100.00;103802.19;5086061;28;20036;-67
2022/03/18 02:39:30;;;;;;;23.73;10.02;;;;;;;-0.68;100.00;103815.34;5093482;28;20044;-66
2022/03/18 02:41:57;;;;;;;24.67;10.00;;;;;;;-0.72;100.00;103815.06;5094298;28;20032;-67
2022/03/18 02:44:22;;;;;;;25.65;10.35;;;;;;;-0.71;100.00;103819.50;5094421;28;20398;-67
2022/03/18 02:46:47;;;;;;;23.70;10.00;;;;;;;-0.75;100.00;103825.16;5093924;28;20035;-67
2022/03/18 02:49:13;;;;;;;24.10;10.50;;;;;;;-0.80;100.00;103818.59;5094203;28;20028;-67
2022/03/18 02:51:39;;;;;;;24.17;10.27;;;;;;;-0.84;100.00;103819.06;5093857;28;20028;-66
2022/03/18 02:54:05;;;;;;;23.60;10.30;;;;;;;-0.87;100.00;103821.38;5094106;28;20039;-66
2022/03/18 02:56:31;;;;;;;25.50;11.23;;;;;;;-0.94;100.00;103814.63;5094262;28;20024;-66
2022/03/18 02:58:57;;;;;;;25.85;12.40;;;;;;;-0.92;100.00;103817.38;5093605;28;20028;-65
2022/03/18 03:01:22;;;;;;;25.33;11.90;;;;;;;-0.99;100.00;103822.75;5093845;28;20016;-68
2022/03/18 03:03:47;;;;;;;26.02;12.02;;;;;;;-1.05;100.00;103836.03;5093804;28;20103;-66
2022/03/18 03:08:57;;;;;;;27.20;12.43;;;;;;;-1.11;100.00;103835.41;5093660;28;20404;-66
2022/03/18 03:11:22;;;;;;;25.92;12.07;;;;;;;-1.03;100.00;103839.72;5093936;28;20019;-66
2022/03/18 03:13:49;;;;;;;25.98;11.50;;;;;;;-1.03;100.00;103847.50;5093645;28;20111;-66
2022/03/18 03:16:14;;;;;;;26.15;12.02;;;;;;;-1.08;100.00;103849.66;5093414;28;20032;-66
2022/03/18 03:18:39;;;;;;;24.45;10.80;;;;;;;-1.08;100.00;103847.06;5093482;28;20050;-66
2022/03/18 03:21:05;;;;;;;25.25;11.70;;;;;;;-1.05;100.00;103843.81;5093328;28;20071;-66
2022/03/18 03:23:30;;;;;;;24.50;10.25;;;;;;;-1.07;100.00;103845.34;5093436;28;20043;-66
2022/03/18 03:25:56;;;;;;;24.63;10.20;;;;;;;-1.11;100.00;103844.13;5093425;28;20028;-66
2022/03/18 03:28:22;;;;;;;24.92;10.93;;;;;;;-1.15;100.00;103852.41;5093198;28;20081;-66
2022/03/18 03:30:48;;;;;;;23.80;10.60;;;;;;;-1.18;100.00;103861.53;5093161;28;20063;-66
2022/03/18 03:33:14;;;;;;;24.95;10.60;;;;;;;-1.13;100.00;103865.53;5093461;28;20099;-66
2022/03/18 03:35:39;;;;;;;25.27;10.40;;;;;;;-1.07;100.00;103855.75;5093446;28;20126;-66
2022/03/18 03:38:05;;;;;;;25.58;10.32;;;;;;;-1.02;100.00;103851.00;5093284;28;20514;-66
2022/03/18 03:40:32;;;;;;;25.73;11.48;;;;;;;-1.11;100.00;103859.69;5093200;28;20074;-66
2022/03/18 03:42:57;;;;;;;25.02;10.63;;;;;;;-1.04;100.00;103866.44;5093062;28;20035;-66
2022/03/18 03:45:23;;;;;;;24.17;9.88;;;;;;;-1.17;100.00;103864.28;5093270;28;20024;-66
2022/03/18 03:47:48;;;;;;;24.48;10.55;;;;;;;-1.23;100.00;103863.69;5092951;28;20028;-66
2022/03/18 03:50:15;;;;;;;24.52;10.50;;;;;;;-1.26;100.00;103873.75;5093052;28;20024;-66
2022/03/18 03:52:41;;;;;;;24.58;10.48;;;;;;;-1.23;100.00;103863.69;5092162;28;20028;-66
2022/03/18 03:55:08;;;;;;;24.13;10.32;;;;;;;-1.14;100.00;103874.97;5092895;28;20052;-66
2022/03/18 03:57:33;;;;;;;24.90;10.68;;;;;;;-1.21;100.00;103872.53;5093122;28;20035;-66
2022/03/18 03:59:59;;;;;;;24.80;10.88;;;;;;;-1.22;100.00;103873.31;5093135;28;20032;-67
2022/03/18 04:02:27;;;;;;;24.08;10.70;;;;;;;-1.27;100.00;103877.09;5092747;28;20032;-66
2022/03/18 04:04:52;;;;;;;23.00;9.80;;;;;;;-1.28;100.00;103880.44;5092963;28;20093;-66
2022/03/18 04:07:18;;;;;;;26.55;11.45;;;;;;;-1.37;100.00;103895.09;5092716;28;20055;-67
2022/03/18 04:09:44;;;;;;;24.48;11.13;;;;;;;-1.39;100.00;103891.47;5092991;28;20434;-67
2022/03/18 04:12:09;;;;;;;25.02;10.88;;;;;;;-1.40;100.00;103893.13;5092932;28;20111;-69
2022/03/18 04:14:35;;;;;;;26.17;11.88;;;;;;;-1.39;100.00;103897.56;5092835;28;20028;-67
2022/03/18 04:17:02;;;;;;;23.83;11.02;;;;;;;-1.35;100.00;103899.69;5092682;28;20451;-66
2022/03/18 04:19:27;;;;;;;24.38;10.85;;;;;;;-1.39;100.00;103902.75;5092521;28;20035;-67
2022/03/18 04:21:53;;;;;;;24.90;10.90;;;;;;;-1.49;100.00;103907.75;5092750;28;20021;-67
2022/03/18 04:24:18;;;;;;;25.35;10.90;;;;;;;-1.53;100.00;103906.53;5092555;28;20047;-67
2022/03/18 04:26:43;;;;;;;24.10;10.55;;;;;;;-1.54;100.00;103912.47;5092647;28;20386;-67
2022/03/18 04:29:10;;;;;;;23.30;10.23;;;;;;;-1.51;100.00;103923.19;5091029;28;20093;-67
2022/03/18 04:31:36;;;;;;;24.10;10.30;;;;;;;-1.52;100.00;103917.84;5084626;28;20500;-66
2022/03/18 04:34:01;;;;;;;24.73;10.50;;;;;;;-1.48;100.00;103913.09;5092467;28;20063;-67
2022/03/18 04:36:26;;;;;;;23.27;10.25;;;;;;;-1.49;100.00;103921.63;5092573;28;20028;-67
2022/03/18 04:38:52;;;;;;;24.50;10.30;;;;;;;-1.55;100.00;103931.41;5092046;28;20051;-67
2022/03/18 04:41:17;;;;;;;23.17;10.27;;;;;;;-1.51;100.00;103932.66;5092721;28;20020;-67
2022/03/18 04:43:43;;;;;;;27.50;10.80;;;;;;;-1.53;100.00;103929.91;5092331;28;20377;-67
2022/03/18 04:46:08;;;;;;;24.85;10.95;;;;;;;-1.50;100.00;103919.81;5092414;28;20032;-67
2022/03/18 04:48:33;;;;;;;24.58;10.80;;;;;;;-1.50;100.00;103927.63;5092450;28;20073;-67
2022/03/18 04:50:59;;;;;;;25.63;10.68;;;;;;;-1.50;100.00;103929.28;5092555;28;20039;-67
2022/03/18 04:53:24;;;;;;;24.88;10.65;;;;;;;-1.47;100.00;103929.59;5092296;28;20069;-67
2022/03/18 04:55:49;;;;;;;24.35;10.60;;;;;;;-1.47;100.00;103925.31;5092640;28;20099;-67
2022/03/18 04:58:15;;;;;;;25.02;10.48;;;;;;;-1.52;100.00;103936.91;5092393;28;20032;-67
2022/03/18 05:00:41;;;;;;;25.45;10.32;;;;;;;-1.57;100.00;103940.72;5092459;28;20474;-67
2022/03/18 05:03:07;;;;;;;23.80;10.25;;;;;;;-1.54;100.00;103941.03;5094131;28;20471;-70
2022/03/18 05:05:32;;;;;;;23.35;10.40;;;;;;;-1.53;100.00;103937.69;5095970;28;20027;-69
2022/03/18 05:07:58;;;;;;;24.55;10.80;;;;;;;-1.51;100.00;103945.63;5096054;28;20027;-67
2022/03/18 05:10:24;;;;;;;24.77;11.02;;;;;;;-1.51;100.00;103945.63;5096042;28;20111;-68
2022/03/18 05:12:50;;;;;;;25.38;10.68;;;;;;;-1.61;100.00;103962.81;5096283;28;20404;-67
2022/03/18 05:15:16;;;;;;;23.50;10.32;;;;;;;-1.61;100.00;103961.91;5096053;28;20038;-67
2022/03/18 05:17:50;;;;;;;24.38;10.95;;;;;;;-1.67;100.00;103964.78;5095785;28;20467;-69
2022/03/18 05:20:15;;;;;;;24.50;10.98;;;;;;;-1.74;100.00;103958.81;5095709;28;20024;-67
2022/03/18 05:22:41;;;;;;;25.63;10.90;;;;;;;-1.76;100.00;103969.94;5095546;28;20020;-67
2022/03/18 05:25:06;;;;;;;25.10;10.95;;;;;;;-1.72;100.00;103975.44;5095810;28;20125;-67
2022/03/18 05:27:32;;;;;;;25.77;11.32;;;;;;;-1.73;100.00;103965.81;5094208;28;20492;-66
2022/03/18 05:29:57;;;;;;;26.58;12.23;;;;;;;-1.76;100.00;103974.22;5095398;28;20099;-67
2022/03/18 05:32:22;;;;;;;28.13;13.40;;;;;;;-1.78;100.00;103971.47;5095931;28;20024;-66
2022/03/18 05:34:48;;;;;;;28.27;13.10;;;;;;;-1.82;100.00;103976.13;5095387;28;20031;-67
2022/03/18 05:37:13;;;;;;;25.83;12.95;;;;;;;-1.82;100.00;103977.09;5095502;28;20383;-67
2022/03/18 05:39:39;;;;;;;27.75;14.05;;;;;;;-1.89;100.00;103978.84;5095030;28;20505;-67
2022/03/18 05:42:04;;;;;;;28.27;14.18;;;;;;;-1.93;100.00;103977.63;5095219;28;20074;-66
2022/03/18 05:44:30;;;;;;;27.35;13.90;;;;;;;-2.00;100.00;103978.63;5095795;28;20024;-67
2022/03/18 05:46:56;;;;;;;27.25;13.75;;;;;;;-1.95;100.00;103980.06;5095136;28;20428;-67
2022/03/18 05:49:21;;;;;;;30.20;14.20;;;;;;;-1.99;100.00;103982.16;5095102;28;20063;-67
2022/03/18 05:51:46;;;;;;;30.42;14.43;;;;;;;-1.89;100.00;103978.84;5095270;28;20020;-67
2022/03/18 05:54:12;;;;;;;30.88;14.85;;;;;;;-1.94;100.00;103975.78;5094917;28;20028;-66
2022/03/18 05:56:53;;;;;;;30.65;14.98;;;;;;;-1.92;100.00;103969.09;5095197;28;20032;-68
2022/03/18 05:59:26;;;;;;;34.15;14.82;;;;;;;-1.89;100.00;103979.78;5090407;28;20035;-68
2022/03/18 06:01:54;;;;;;;29.77;14.52;;;;;;;-1.88;100.00;103986.78;5095117;28;20110;-67
2022/03/18 06:04:20;;;;;;;29.85;14.18;;;;;;;-1.85;100.00;103997.50;5094857;28;20030;-67
2022/03/18 06:06:47;;;;;;;27.90;14.40;;;;;;;-1.85;100.00;103994.91;5094774;28;20020;-67
2022/03/18 06:11:58;;;;;;;26.63;13.75;;;;;;;-1.77;100.00;103994.03;5095239;28;20035;-67
2022/03/18 06:14:26;;;;;;;26.77;13.95;;;;;;;-1.77;100.00;103999.22;5093949;28;20032;-66
2022/03/18 06:16:54;;;;;;;29.25;13.93;;;;;;;-1.70;100.00;104007.63;5094503;28;20552;-67
2022/03/18 06:19:23;;;;;;;28.80;14.20;;;;;;;-1.65;100.00;104015.13;5094738;28;20032;-67
2022/03/18 06:21:49;;;;;;;30.55;14.00;;;;;;;-1.67;100.00;104014.06;5094460;28;20059;-67
2022/03/18 06:24:15;;;;;;;30.70;13.70;;;;;;;-1.54;100.00;104024.06;5094520;28;20027;-67
2022/03/18 06:26:41;;;;;;;30.45;14.45;;;;;;;-1.49;100.00;104029.72;5094536;28;20031;-67
2022/03/18 06:29:07;;;;;;;29.42;15.05;;;;;;;-1.45;100.00;104026.69;5094364;28;20386;-67
2022/03/18 06:31:34;;;;;;;31.33;16.33;;;;;;;-1.39;100.00;104035.13;5094357;28;20505;-68
2022/03/18 06:34:00;;;;;;;29.25;16.00;;;;;;;-1.32;100.00;104029.81;5074646;28;20033;-67
2022/03/18 06:36:26;;;;;;;30.95;16.45;;;;;;;-1.29;100.00;104032.72;5078868;28;20033;-68
2022/03/18 06:38:51;;;;;;;30.95;15.18;;;;;;;-1.23;100.00;104029.84;5080498;28;20149;-66
2022/03/18 06:41:19;;;;;;;30.40;14.93;;;;;;;-1.21;100.00;104030.91;5079932;28;20094;-68
2022/03/18 06:43:47;;;;;;;29.70;15.73;;;;;;;-1.10;100.00;104025.16;5078089;28;20017;-67
2022/03/18 06:46:14;;;;;;;27.88;15.40;;;;;;;-1.09;100.00;104039.06;5079300;28;20020;-67
2022/03/18 06:48:40;;;;;;;30.63;16.15;;;;;;;-1.03;100.00;104043.94;5081422;28;20107;-67
2022/03/18 06:51:05;;;;;;;31.30;15.93;;;;;;;-0.96;100.00;104043.81;5084010;28;20077;-66
2022/03/18 06:53:31;;;;;;;29.95;15.63;;;;;;;-0.89;100.00;104055.00;5080695;28;20537;-68
2022/03/18 06:55:56;;;;;;;29.25;15.48;;;;;;;-0.75;100.00;104052.91;5083393;28;20388;-68
2022/03/18 06:58:21;;;;;;;29.67;15.75;;;;;;;-0.68;100.00;104055.34;5079394;28;20376;-67
2022/03/18 07:00:46;;;;;;;32.65;16.52;;;;;;;-0.59;100.00;104055.38;5084307;28;20024;-68
2022/03/18 07:03:13;;;;;;;30.08;17.33;;;;;;;-0.51;100.00;104054.47;5080690;28;20108;-68
2022/03/18 07:05:38;;;;;;;29.77;16.20;;;;;;;-0.38;100.00;104054.00;5076030;28;20016;-66
2022/03/18 07:08:04;;;;;;;32.80;18.50;;;;;;;-0.19;100.00;104060.28;5079692;28;20023;-67
2022/03/18 07:10:29;;;;;;;33.90;19.30;;;;;;;-0.09;100.00;104062.09;5083589;28;20040;-68
2022/03/18 07:12:55;;;;;;;33.17;19.75;;;;;;;0.04;100.00;104066.84;5077794;28;20143;-66
2022/03/18 07:15:20;;;;;;;34.30;20.55;;;;;;;0.17;100.00;104066.34;5081643;28;20110;-66
2022/03/18 07:17:55;;;;;;;39.05;25.60;;;;;;;0.32;100.00;104057.47;5080283;28;20383;-66
2022/03/18 07:20:22;;;;;;;36.53;23.73;;;;;;;0.47;100.00;104062.31;5079633;28;20047;-66
2022/03/18 07:23:02;;;;;;;35.92;24.75;;;;;;;0.56;100.00;104068.41;5075993;28;20028;-65
2022/03/18 07:25:28;;;;;;;39.03;25.58;;;;;;;0.64;100.00;104072.69;5080369;28;20028;-66
2022/03/18 07:27:53;;;;;;;36.47;24.95;;;;;;;0.82;100.00;104063.09;5079331;28;20024;-66
2022/03/18 07:30:19;;;;;;;37.90;25.42;;;;;;;1.02;100.00;104070.22;5077931;28;20047;-66
2022/03/18 07:32:44;;;;;;;37.72;24.35;;;;;;;1.23;100.00;104070.41;5076871;28;20107;-66
2022/03/18 07:35:10;;;;;;;37.92;24.10;;;;;;;1.48;100.00;104070.09;5078811;28;20154;-66
2022/03/18 07:37:36;;;;;;;38.75;24.80;;;;;;;1.73;100.00;104076.81;5080249;28;20127;-67
2022/03/18 07:40:05;;;;;;;37.17;22.48;;;;;;;1.92;100.00;104087.25;5077929;28;20510;-67
2022/03/18 07:42:48;;;;;;;35.80;20.77;;;;;;;2.18;100.00;104086.06;5091759;28;20028;-66
2022/03/18 07:45:19;;;;;;;34.33;21.25;;;;;;;2.44;100.00;104095.34;5092681;28;20109;-69
2022/03/18 07:47:46;;;;;;;31.15;20.48;;;;;;;2.62;100.00;104103.88;5092756;28;20131;-67
2022/03/18 07:50:12;;;;;;;36.05;19.65;;;;;;;2.87;100.00;104111.28;5080488;28;20027;-66
2022/03/18 07:52:37;;;;;;;31.83;19.63;;;;;;;3.08;100.00;104117.50;5077280;28;20025;-67
2022/03/18 07:55:03;;;;;;;33.28;20.55;;;;;;;3.29;100.00;104121.03;5079046;28;20419;-66
2022/03/18 07:57:28;;;;;;;31.73;19.30;;;;;;;3.54;100.00;104112.69;5079132;28;20372;-65
2022/03/18 07:59:53;;;;;;;30.98;18.92;;;;;;;3.66;100.00;104125.09;5078172;28;20021;-66
2022/03/18 08:02:19;;;;;;;32.20;19.85;;;;;;;3.82;100.00;104126.41;5077548;28;20021;-65
2022/03/18 08:04:48;;;;;;;31.50;18.48;;;;;;;3.96;100.00;104120.66;5077364;28;20370;-65
2022/03/18 08:07:14;;;;;;;31.00;18.38;;;;;;;4.05;100.00;104119.56;5079819;28;20035;-65
2022/03/18 08:09:39;;;;;;;32.70;19.50;;;;;;;4.15;100.00;104125.72;5076873;28;20028;-66
2022/03/18 08:12:05;;;;;;;30.45;19.10;;;;;;;4.32;100.00;104126.19;5078719;28;20046;-65
2022/03/18 08:14:31;;;;;;;30.45;17.85;;;;;;;4.50;100.00;104138.19;5078330;28;20032;-66
2022/03/18 08:16:57;;;;;;;29.52;16.92;;;;;;;4.70;100.00;104131.00;5074054;28;20479;-67
2022/03/18 08:19:22;;;;;;;30.42;16.85;;;;;;;4.93;100.00;104134.56;5081488;28;20464;-68
2022/03/18 08:21:47;;;;;;;29.45;15.98;;;;;;;5.05;100.00;104141.72;5078274;28;20399;-66
2022/03/18 08:24:13;;;;;;;31.27;15.73;;;;;;;5.22;100.00;104135.16;5077717;28;20020;-68
2022/03/18 08:26:38;;;;;;;30.63;14.25;;;;;;;5.51;100.00;104136.53;5078117;28;20475;-67
2022/03/18 08:29:04;;;;;;;28.35;12.90;;;;;;;5.81;100.00;104138.78;5072963;28;20598;-68
2022/03/18 08:31:30;;;;;;;29.25;12.35;;;;;;;6.09;100.00;104131.31;5076433;28;20025;-68
2022/03/18 08:33:56;;;;;;;26.55;12.18;;;;;;;6.39;100.00;104147.53;5076784;28;20024;-67
2022/03/18 08:36:22;;;;;;;25.80;12.00;;;;;;;6.54;100.00;104148.69;5075515;28;20082;-67
2022/03/18 08:38:48;;;;;;;27.48;12.55;;;;;;;6.66;100.00;104153.00;5080394;28;20044;-67
2022/03/18 08:41:13;;;;;;;27.70;12.63;;;;;;;6.63;100.00;104151.06;5082714;28;20021;-67
2022/03/18 08:43:39;;;;;;;26.05;11.68;;;;;;;6.95;100.00;104156.03;5080998;28;20025;-67
2022/03/18 08:46:04;;;;;;;25.58;11.70;;;;;;;7.18;100.00;104156.78;5081551;28;20047;-67
2022/03/18 08:48:29;;;;;;;26.50;11.00;;;;;;;7.27;100.00;104157.41;5082827;28;20024;-67
2022/03/18 08:50:55;;;;;;;27.23;10.93;;;;;;;7.44;100.00;104165.56;5089292;28;20085;-67
2022/03/18 08:53:20;;;;;;;24.27;9.30;;;;;;;7.87;100.00;104170.28;5096341;28;20050;-67
2022/03/18 08:55:46;;;;;;;25.00;9.15;;;;;;;8.23;100.00;104177.13;5096315;28;20020;-67
2022/03/18 08:58:11;;;;;;;25.73;8.95;;;;;;;8.58;100.00;104189.16;5095830;28;20024;-67
2022/03/18 09:00:37;;;;;;;24.33;9.32;;;;;;;8.86;100.00;104191.84;5096127;28;20016;-67
2022/03/18 09:03:02;;;;;;;23.65;9.63;;;;;;;8.90;100.00;104187.69;5096112;28;20016;-67
2022/03/18 09:05:29;;;;;;;23.67;9.10;;;;;;;9.11;100.00;104181.97;5095505;28;20028;-67
2022/03/18 09:07:55;;;;;;;22.65;9.32;;;;;;;9.34;99.58;104184.31;5096367;28;20024;-68
2022/03/18 09:10:20;;;;;;;23.85;8.93;;;;;;;9.51;97.76;104195.00;5095814;28;20049;-69
2022/03/18 09:12:47;;;;;;;22.08;9.18;;;;;;;9.97;95.72;104191.63;5095889;28;20490;-70
2022/03/18 09:15:13;;;;;;;23.00;8.95;;;;;;;10.52;91.76;104194.00;5087791;28;20114;-68
2022/03/18 09:17:38;;;;;;;23.45;8.25;;;;;;;11.15;85.41;104210.78;5095667;28;20534;-68
2022/03/18 09:20:06;;;;;;;22.73;8.32;;;;;;;11.73;82.80;104197.13;5095624;28;20099;-68
2022/03/18 09:22:31;;;;;;;24.10;9.10;;;;;;;11.80;78.16;104199.28;5095755;28;20035;-68
2022/03/18 09:24:56;;;;;;;24.33;9.10;;;;;;;12.16;80.46;104203.81;5095640;28;20024;-70
2022/03/18 09:27:22;;;;;;;22.48;7.60;;;;;;;12.56;73.69;104205.81;5095522;28;20359;-69
2022/03/18 09:29:47;;;;;;;21.05;7.72;;;;;;;12.87;70.67;104202.91;5095665;28;20024;-68
2022/03/18 09:32:12;;;;;;;21.33;7.68;;;;;;;13.12;70.23;104203.16;5095455;28;20452;-69
2022/03/18 09:34:38;;;;;;;26.15;10.13;;;;;;;13.42;65.97;104211.66;5095541;28;20159;-68
2022/03/18 09:37:04;;;;;;;20.33;6.82;;;;;;;13.86;62.11;104207.47;5093845;28;20036;-68
2022/03/18 09:39:29;;;;;;;20.40;6.93;;;;;;;14.37;61.65;104209.63;5093090;28;20447;-70
2022/03/18 09:41:55;;;;;;;20.20;6.85;;;;;;;14.77;58.92;104207.72;5095621;28;20088;-68
2022/03/18 09:44:21;;;;;;;19.33;6.28;;;;;;;15.08;49.77;104207.16;5095206;28;20021;-68
2022/03/18 09:46:48;;;;;;;19.20;5.50;;;;;;;15.36;43.57;104210.00;5095218;28;20538;-68
2022/03/18 09:49:15;;;;;;;19.92;5.50;;;;;;;15.61;42.48;104204.72;5080230;28;20024;-68
2022/03/18 09:51:45;;;;;;;18.77;5.68;;;;;;;15.54;43.24;104218.69;5089692;28;20115;-69
2022/03/18 09:54:12;;;;;;;20.75;5.70;;;;;;;15.57;41.16;104213.47;5095096;28;20066;-70
2022/03/18 09:56:45;;;;;;;18.33;4.90;;;;;;;15.57;40.56;104213.47;5095166;28;20020;-68
2022/03/18 09:59:11;;;;;;;19.17;5.28;;;;;;;15.67;39.32;104212.94;5095116;28;20032;-68
2022/03/18 10:01:36;;;;;;;18.50;5.20;;;;;;;15.97;38.48;104219.34;5094938;28;20031;-68
2022/03/18 10:04:12;;;;;;;19.60;5.70;;;;;;;16.62;38.37;104230.47;5094893;28;20020;-69
2022/03/18 10:06:42;;;;;;;19.10;5.38;;;;;;;17.48;36.30;104231.34;5095269;28;20161;-68
2022/03/18 10:09:08;;;;;;;20.23;5.50;;;;;;;17.88;34.31;104232.44;5094811;28;20077;-68
2022/03/18 10:11:37;;;;;;;19.20;5.50;;;;;;;18.33;33.92;104233.66;5094678;28;20020;-68
2022/03/18 10:14:28;;;;;;;18.80;5.60;;;;;;;19.10;36.66;104244.47;5094783;28;20021;-68
2022/03/18 10:17:02;;;;;;;18.63;5.03;;;;;;;19.17;33.00;104235.69;5082295;28;20087;-68
2022/03/18 10:19:27;;;;;;;19.00;5.20;;;;;;;18.75;32.50;104235.59;5085946;28;20149;-71
2022/03/18 10:22:06;;;;;;;19.83;4.70;;;;;;;19.15;33.00;104241.91;5094734;28;20501;-68
2022/03/18 10:24:38;;;;;;;19.55;5.28;;;;;;;19.89;32.87;104238.03;5086566;28;20115;-68
2022/03/18 10:27:13;;;;;;;18.20;4.28;;;;;;;20.05;33.27;104236.56;5087348;28;20065;-68
2022/03/18 10:29:47;;;;;;;19.38;4.80;;;;;;;20.26;32.10;104227.09;5088804;28;20036;-68
2022/03/18 10:32:14;;;;;;;16.60;4.18;;;;;;;20.59;30.16;104229.44;5094378;28;20031;-68
2022/03/18 10:37:39;;;;;;;16.00;3.92;;;;;;;20.94;28.80;104229.09;5094406;28;20051;-68
2022/03/18 10:40:04;;;;;;;16.70;4.22;;;;;;;20.87;29.09;104225.38;5086996;28;20436;-68
2022/03/18 10:42:30;;;;;;;16.38;4.10;;;;;;;21.02;29.62;104226.50;5094179;28;20115;-68
2022/03/18 10:45:00;;;;;;;12.88;3.47;;;;;;;21.61;28.21;104227.25;5094125;28;20026;-69
2022/03/18 10:47:26;;;;;;;16.52;3.78;;;;;;;21.88;26.73;104227.53;5094102;28;20072;-68
2022/03/18 10:50:10;;;;;;;15.52;3.90;;;;;;;21.71;27.44;104231.84;5093998;28;20025;-68
2022/03/18 10:53:06;;;;;;;18.45;4.22;;;;;;;21.73;28.65;104230.09;5093960;28;20085;-68
2022/03/18 10:55:36;;;;;;;18.70;4.40;;;;;;;21.46;27.99;104228.84;5090610;28;20378;-68
2022/03/18 10:58:13;;;;;;;17.85;4.25;;;;;;;21.83;28.64;104222.97;5090101;28;20489;-68
2022/03/18 11:00:46;;;;;;;16.02;4.20;;;;;;;21.66;28.46;104225.53;5085073;28;20028;-68
2022/03/18 11:03:13;;;;;;;18.77;4.43;;;;;;;22.34;26.96;104226.16;5086229;28;20063;-68
2022/03/18 11:05:51;;;;;;;17.58;4.30;;;;;;;23.29;27.12;104224.09;5093795;28;20021;-69
2022/03/18 11:08:22;;;;;;;16.35;4.00;;;;;;;23.67;25.16;104228.69;5087754;28;20036;-69
2022/03/18 11:11:10;;;;;;;18.17;4.40;;;;;;;24.18;24.54;104219.81;5093749;28;20020;-69
2022/03/18 11:14:04;;;;;;;18.35;4.45;;;;;;;24.79;25.76;104228.78;5093413;28;20024;-68
2022/03/18 11:16:35;;;;;;;16.38;4.10;;;;;;;25.01;23.81;104214.25;5091461;28;20024;-68
2022/03/18 11:19:01;;;;;;;16.83;4.20;;;;;;;25.69;23.24;104210.34;5093473;28;20052;-68
2022/03/18 11:21:39;;;;;;;15.38;4.00;;;;;;;25.71;21.54;104206.69;5093151;28;20034;-68